sensor_id;sensor_type;location;lat;lon;timestamp;P1;durP1;ratioP1;P2;durP2;ratioP2
6953;SDS011;3516;47.980;8.808;2023-02-11T05:58:26;36.92;;;20.50;;
6953;SDS011;3516;47.980;8.808;2023-02-11T06:00:53;38.17;;;20.30;;
6953;SDS011;3516;47.980;8.808;2023-02-11T06:03:20;39.67;;;20.60;;
6953;SDS011;3516;47.980;8.808;2023-02-11T06:05:47;40.53;;;20.80;;
6953;SDS011;3516;47.980;8.808;2023-02-11T06:08:14;38.13;;;19.80;;
6953;SDS011;3516;47.980;8.808;2023-02-11T06:10:43;35.20;;;19.67;;
6953;SDS011;3516;47.980;8.808;2023-02-11T06:13:10;39.10;;;20.23;;
6953;SDS011;3516;47.980;8.808;2023-02-11T06:15:38;41.35;;;20.95;;
6953;SDS011;3516;47.980;8.808;2023-02-11T06:18:05;43.92;;;20.80;;
6953;SDS011;3516;47.980;8.808;2023-02-11T06:20:33;40.28;;;20.92;;
6953;SDS011;3516;47.980;8.808;2023-02-11T06:23:01;38.70;;;20.67;;
6953;SDS011;3516;47.980;8.808;2023-02-11T06:25:28;39.13;;;21.23;;
6953;SDS011;3516;47.980;8.808;2023-02-11T06:27:55;38.28;;;20.38;;
6953;SDS011;3516;47.980;8.808;2023-02-11T06:30:22;44.95;;;20.40;;
6953;SDS011;3516;47.980;8.808;2023-02-11T06:32:51;34.88;;;19.33;;
6953;SDS011;3516;47.980;8.808;2023-02-11T06:35:18;36.15;;;20.20;;
6953;SDS011;3516;47.980;8.808;2023-02-11T06:37:45;35.83;;;20.45;;
6953;SDS011;3516;47.980;8.808;2023-02-11T06:40:13;41.55;;;21.05;;
6953;SDS011;3516;47.980;8.808;2023-02-11T06:42:42;44.92;;;20.60;;
6953;SDS011;3516;47.980;8.808;2023-02-11T06:45:09;43.17;;;20.13;;
6953;SDS011;3516;47.980;8.808;2023-02-11T06:47:37;38.35;;;20.92;;
6953;SDS011;3516;47.980;8.808;2023-02-11T06:50:06;39.00;;;20.25;;
6953;SDS011;3516;47.980;8.808;2023-02-11T06:52:34;42.97;;;19.67;;
6953;SDS011;3516;47.980;8.808;2023-02-11T06:55:01;39.00;;;19.25;;
6953;SDS011;3516;47.980;8.808;2023-02-11T06:57:28;41.58;;;20.35;;
6953;SDS011;3516;47.980;8.808;2023-02-11T06:59:55;36.10;;;20.13;;
6953;SDS011;3516;47.980;8.808;2023-02-11T07:02:22;36.45;;;19.85;;
6953;SDS011;3516;47.980;8.808;2023-02-11T07:04:49;37.55;;;20.42;;
6953;SDS011;3516;47.980;8.808;2023-02-11T07:07:18;44.38;;;21.95;;
6953;SDS011;3516;47.980;8.808;2023-02-11T07:09:45;39.80;;;21.50;;
6953;SDS011;3516;47.980;8.808;2023-02-11T07:12:12;37.83;;;20.83;;
6953;SDS011;3516;47.980;8.808;2023-02-11T07:14:39;42.13;;;20.67;;
6953;SDS011;3516;47.980;8.808;2023-02-11T07:17:07;40.42;;;22.05;;
6953;SDS011;3516;47.980;8.808;2023-02-11T07:19:34;44.10;;;23.40;;
6953;SDS011;3516;47.980;8.808;2023-02-11T07:22:01;44.30;;;24.10;;
6953;SDS011;3516;47.980;8.808;2023-02-11T07:24:29;43.55;;;24.13;;
6953;SDS011;3516;47.980;8.808;2023-02-11T07:26:56;45.38;;;22.75;;
6953;SDS011;3516;47.980;8.808;2023-02-11T07:29:24;43.63;;;21.67;;
6953;SDS011;3516;47.980;8.808;2023-02-11T07:31:51;38.50;;;21.95;;
6953;SDS011;3516;47.980;8.808;2023-02-11T07:34:18;50.40;;;28.13;;
6953;SDS011;3516;47.980;8.808;2023-02-11T07:36:46;48.95;;;27.70;;
6953;SDS011;3516;47.980;8.808;2023-02-11T07:39:14;40.60;;;22.85;;
6953;SDS011;3516;47.980;8.808;2023-02-11T07:41:42;39.63;;;21.20;;
6953;SDS011;3516;47.980;8.808;2023-02-11T07:44:11;44.75;;;22.13;;
6953;SDS011;3516;47.980;8.808;2023-02-11T07:46:39;43.45;;;21.10;;
6953;SDS011;3516;47.980;8.808;2023-02-11T07:49:09;40.38;;;21.70;;
6953;SDS011;3516;47.980;8.808;2023-02-11T07:51:36;42.35;;;22.73;;
6953;SDS011;3516;47.980;8.808;2023-02-11T07:54:04;42.95;;;23.42;;
6953;SDS011;3516;47.980;8.808;2023-02-11T07:56:31;44.15;;;23.65;;
6953;SDS011;3516;47.980;8.808;2023-02-11T07:59:00;43.63;;;23.88;;
6953;SDS011;3516;47.980;8.808;2023-02-11T08:01:29;41.80;;;22.75;;
6953;SDS011;3516;47.980;8.808;2023-02-11T08:03:57;46.72;;;25.33;;
6953;SDS011;3516;47.980;8.808;2023-02-11T08:06:25;47.83;;;23.77;;
6953;SDS011;3516;47.980;8.808;2023-02-11T08:08:52;43.58;;;23.35;;
6953;SDS011;3516;47.980;8.808;2023-02-11T08:11:20;39.83;;;23.13;;
6953;SDS011;3516;47.980;8.808;2023-02-11T08:13:47;46.38;;;25.02;;
6953;SDS011;3516;47.980;8.808;2023-02-11T08:16:17;52.85;;;25.77;;
6953;SDS011;3516;47.980;8.808;2023-02-11T08:18:45;42.35;;;24.42;;
6953;SDS011;3516;47.980;8.808;2023-02-11T08:21:12;53.20;;;26.23;;
6953;SDS011;3516;47.980;8.808;2023-02-11T08:23:40;46.38;;;25.75;;
6953;SDS011;3516;47.980;8.808;2023-02-11T08:26:09;42.30;;;22.77;;
6953;SDS011;3516;47.980;8.808;2023-02-11T08:28:37;42.45;;;23.77;;
6953;SDS011;3516;47.980;8.808;2023-02-11T08:31:05;45.25;;;25.60;;
6953;SDS011;3516;47.980;8.808;2023-02-11T08:33:33;42.67;;;23.80;;
6953;SDS011;3516;47.980;8.808;2023-02-11T08:36:00;46.28;;;26.83;;
6953;SDS011;3516;47.980;8.808;2023-02-11T08:38:28;41.33;;;25.58;;
6953;SDS011;3516;47.980;8.808;2023-02-11T08:40:55;47.00;;;24.95;;
6953;SDS011;3516;47.980;8.808;2023-02-11T08:43:25;46.40;;;25.75;;
6953;SDS011;3516;47.980;8.808;2023-02-11T08:45:52;48.95;;;27.15;;
6953;SDS011;3516;47.980;8.808;2023-02-11T08:48:19;43.05;;;25.80;;
6953;SDS011;3516;47.980;8.808;2023-02-11T08:50:47;50.33;;;27.42;;
6953;SDS011;3516;47.980;8.808;2023-02-11T08:53:14;44.50;;;25.15;;
6953;SDS011;3516;47.980;8.808;2023-02-11T08:55:46;48.22;;;28.73;;
6953;SDS011;3516;47.980;8.808;2023-02-11T08:58:13;59.25;;;33.05;;
6953;SDS011;3516;47.980;8.808;2023-02-11T09:00:40;46.33;;;29.35;;
6953;SDS011;3516;47.980;8.808;2023-02-11T09:03:09;56.72;;;29.52;;
6953;SDS011;3516;47.980;8.808;2023-02-11T09:05:39;45.97;;;27.38;;
6953;SDS011;3516;47.980;8.808;2023-02-11T09:08:08;51.58;;;30.85;;
6953;SDS011;3516;47.980;8.808;2023-02-11T09:10:35;57.78;;;32.70;;
6953;SDS011;3516;47.980;8.808;2023-02-11T09:13:02;54.33;;;30.13;;
6953;SDS011;3516;47.980;8.808;2023-02-11T09:15:29;53.10;;;29.23;;
6953;SDS011;3516;47.980;8.808;2023-02-11T09:17:56;50.42;;;27.23;;
6953;SDS011;3516;47.980;8.808;2023-02-11T09:20:24;51.53;;;28.88;;
6953;SDS011;3516;47.980;8.808;2023-02-11T09:22:51;52.05;;;27.30;;
6953;SDS011;3516;47.980;8.808;2023-02-11T09:25:19;43.05;;;24.67;;
6953;SDS011;3516;47.980;8.808;2023-02-11T09:27:46;45.63;;;25.05;;
6953;SDS011;3516;47.980;8.808;2023-02-11T09:30:13;42.75;;;25.52;;
6953;SDS011;3516;47.980;8.808;2023-02-11T09:32:41;42.63;;;24.55;;
6953;SDS011;3516;47.980;8.808;2023-02-11T09:35:08;44.28;;;25.55;;
6953;SDS011;3516;47.980;8.808;2023-02-11T09:37:35;48.47;;;26.25;;
6953;SDS011;3516;47.980;8.808;2023-02-11T09:40:02;41.25;;;23.80;;
6953;SDS011;3516;47.980;8.808;2023-02-11T09:42:39;41.08;;;24.02;;
6953;SDS011;3516;47.980;8.808;2023-02-11T09:45:09;41.63;;;23.95;;
6953;SDS011;3516;47.980;8.808;2023-02-11T09:47:42;35.50;;;22.50;;
6953;SDS011;3516;47.980;8.808;2023-02-11T09:50:12;40.25;;;24.77;;
6953;SDS011;3516;47.980;8.808;2023-02-11T09:52:40;39.05;;;23.35;;
6953;SDS011;3516;47.980;8.808;2023-02-11T09:55:16;44.15;;;24.45;;
6953;SDS011;3516;47.980;8.808;2023-02-11T09:57:45;40.83;;;24.95;;
6953;SDS011;3516;47.980;8.808;2023-02-11T10:00:17;46.40;;;26.40;;
6953;SDS011;3516;47.980;8.808;2023-02-11T10:02:52;45.35;;;27.67;;
6953;SDS011;3516;47.980;8.808;2023-02-11T10:05:24;46.65;;;25.85;;
6953;SDS011;3516;47.980;8.808;2023-02-11T10:07:56;39.30;;;24.45;;
6953;SDS011;3516;47.980;8.808;2023-02-11T10:10:30;45.30;;;27.92;;
6953;SDS011;3516;47.980;8.808;2023-02-11T10:13:04;46.97;;;26.58;;
6953;SDS011;3516;47.980;8.808;2023-02-11T10:15:35;50.72;;;29.17;;
6953;SDS011;3516;47.980;8.808;2023-02-11T10:20:56;47.60;;;28.17;;
6953;SDS011;3516;47.980;8.808;2023-02-11T10:23:28;49.80;;;27.88;;
6953;SDS011;3516;47.980;8.808;2023-02-11T10:25:59;44.78;;;26.17;;
6953;SDS011;3516;47.980;8.808;2023-02-11T10:28:29;43.05;;;24.00;;
6953;SDS011;3516;47.980;8.808;2023-02-11T10:30:57;39.28;;;22.85;;
6953;SDS011;3516;47.980;8.808;2023-02-11T10:33:26;44.28;;;25.10;;
6953;SDS011;3516;47.980;8.808;2023-02-11T10:35:53;47.45;;;24.35;;
6953;SDS011;3516;47.980;8.808;2023-02-11T10:38:20;41.70;;;22.25;;
6953;SDS011;3516;47.980;8.808;2023-02-11T10:40:47;39.10;;;21.65;;
6953;SDS011;3516;47.980;8.808;2023-02-11T10:43:15;37.97;;;23.13;;
6953;SDS011;3516;47.980;8.808;2023-02-11T10:45:45;38.88;;;22.92;;
6953;SDS011;3516;47.980;8.808;2023-02-11T10:51:05;40.05;;;21.02;;
6953;SDS011;3516;47.980;8.808;2023-02-11T10:53:33;44.58;;;22.92;;
6953;SDS011;3516;47.980;8.808;2023-02-11T10:56:01;44.80;;;23.13;;
6953;SDS011;3516;47.980;8.808;2023-02-11T10:58:29;39.50;;;22.83;;
6953;SDS011;3516;47.980;8.808;2023-02-11T11:00:59;39.00;;;21.98;;
6953;SDS011;3516;47.980;8.808;2023-02-11T11:03:27;36.28;;;22.45;;
6953;SDS011;3516;47.980;8.808;2023-02-11T11:05:56;48.42;;;23.08;;
6953;SDS011;3516;47.980;8.808;2023-02-11T11:08:36;38.53;;;21.70;;
6953;SDS011;3516;47.980;8.808;2023-02-11T11:11:04;37.83;;;21.85;;
6953;SDS011;3516;47.980;8.808;2023-02-11T11:13:33;42.20;;;20.95;;
6953;SDS011;3516;47.980;8.808;2023-02-11T11:18:50;40.45;;;21.85;;
6953;SDS011;3516;47.980;8.808;2023-02-11T11:21:19;35.10;;;20.33;;
6953;SDS011;3516;47.980;8.808;2023-02-11T11:23:48;33.15;;;19.85;;
6953;SDS011;3516;47.980;8.808;2023-02-11T11:26:16;33.60;;;18.38;;
6953;SDS011;3516;47.980;8.808;2023-02-11T11:28:49;34.80;;;19.10;;
6953;SDS011;3516;47.980;8.808;2023-02-11T11:31:17;36.60;;;18.88;;
6953;SDS011;3516;47.980;8.808;2023-02-11T11:33:46;38.30;;;18.40;;
6953;SDS011;3516;47.980;8.808;2023-02-11T11:36:15;26.73;;;16.40;;
6953;SDS011;3516;47.980;8.808;2023-02-11T11:38:44;31.23;;;16.00;;
6953;SDS011;3516;47.980;8.808;2023-02-11T11:41:13;26.35;;;14.93;;
6953;SDS011;3516;47.980;8.808;2023-02-11T11:43:42;30.77;;;16.02;;
6953;SDS011;3516;47.980;8.808;2023-02-11T11:46:21;29.67;;;17.13;;
6953;SDS011;3516;47.980;8.808;2023-02-11T11:48:49;28.83;;;18.02;;
6953;SDS011;3516;47.980;8.808;2023-02-11T11:51:18;30.15;;;16.92;;
6953;SDS011;3516;47.980;8.808;2023-02-11T11:53:47;30.42;;;16.67;;
6953;SDS011;3516;47.980;8.808;2023-02-11T11:56:17;30.92;;;16.13;;
6953;SDS011;3516;47.980;8.808;2023-02-11T11:58:45;33.47;;;15.07;;
6953;SDS011;3516;47.980;8.808;2023-02-11T12:01:15;24.77;;;15.20;;
6953;SDS011;3516;47.980;8.808;2023-02-11T12:06:34;24.25;;;13.38;;
6953;SDS011;3516;47.980;8.808;2023-02-11T12:09:07;23.80;;;14.23;;
6953;SDS011;3516;47.980;8.808;2023-02-11T12:11:38;25.15;;;13.15;;
6953;SDS011;3516;47.980;8.808;2023-02-11T12:14:12;25.25;;;13.70;;
6953;SDS011;3516;47.980;8.808;2023-02-11T12:16:46;25.05;;;14.35;;
6953;SDS011;3516;47.980;8.808;2023-02-11T12:19:23;19.42;;;11.95;;
6953;SDS011;3516;47.980;8.808;2023-02-11T12:22:01;23.15;;;11.75;;
6953;SDS011;3516;47.980;8.808;2023-02-11T12:24:36;21.88;;;12.05;;
6953;SDS011;3516;47.980;8.808;2023-02-11T12:27:07;19.75;;;11.40;;
6953;SDS011;3516;47.980;8.808;2023-02-11T12:29:39;20.05;;;11.43;;
6953;SDS011;3516;47.980;8.808;2023-02-11T12:32:14;20.17;;;11.05;;
6953;SDS011;3516;47.980;8.808;2023-02-11T12:34:59;16.33;;;8.60;;
6953;SDS011;3516;47.980;8.808;2023-02-11T12:37:31;16.00;;;9.38;;
6953;SDS011;3516;47.980;8.808;2023-02-11T12:40:02;17.92;;;9.25;;
6953;SDS011;3516;47.980;8.808;2023-02-11T12:45:40;14.25;;;8.40;;
6953;SDS011;3516;47.980;8.808;2023-02-11T12:48:12;16.85;;;8.45;;
6953;SDS011;3516;47.980;8.808;2023-02-11T12:50:48;17.40;;;8.70;;
6953;SDS011;3516;47.980;8.808;2023-02-11T12:53:27;19.30;;;9.32;;
6953;SDS011;3516;47.980;8.808;2023-02-11T12:55:57;14.40;;;8.73;;
6953;SDS011;3516;47.980;8.808;2023-02-11T12:58:26;16.85;;;9.15;;
6953;SDS011;3516;47.980;8.808;2023-02-11T13:00:56;15.48;;;9.27;;
6953;SDS011;3516;47.980;8.808;2023-02-11T13:03:25;14.98;;;8.48;;
6953;SDS011;3516;47.980;8.808;2023-02-11T13:05:57;12.48;;;7.65;;
6953;SDS011;3516;47.980;8.808;2023-02-11T13:08:28;12.63;;;7.38;;
6953;SDS011;3516;47.980;8.808;2023-02-11T13:10:56;15.82;;;7.20;;
6953;SDS011;3516;47.980;8.808;2023-02-11T13:13:26;13.07;;;6.93;;
6953;SDS011;3516;47.980;8.808;2023-02-11T13:15:55;12.27;;;6.65;;
6953;SDS011;3516;47.980;8.808;2023-02-11T13:18:29;9.88;;;6.68;;
6953;SDS011;3516;47.980;8.808;2023-02-11T13:21:04;12.18;;;6.72;;
6953;SDS011;3516;47.980;8.808;2023-02-11T13:23:36;11.25;;;6.63;;
6953;SDS011;3516;47.980;8.808;2023-02-11T13:26:06;9.18;;;5.90;;
6953;SDS011;3516;47.980;8.808;2023-02-11T13:28:39;10.57;;;5.55;;
6953;SDS011;3516;47.980;8.808;2023-02-11T13:31:08;8.70;;;5.88;;
6953;SDS011;3516;47.980;8.808;2023-02-11T13:33:37;12.23;;;5.82;;
6953;SDS011;3516;47.980;8.808;2023-02-11T13:36:11;10.82;;;5.97;;
6953;SDS011;3516;47.980;8.808;2023-02-11T13:38:40;8.77;;;5.40;;
6953;SDS011;3516;47.980;8.808;2023-02-11T13:41:14;5.93;;;4.35;;
6953;SDS011;3516;47.980;8.808;2023-02-11T13:43:41;7.25;;;4.70;;
6953;SDS011;3516;47.980;8.808;2023-02-11T13:46:09;7.28;;;4.43;;
6953;SDS011;3516;47.980;8.808;2023-02-11T13:48:37;5.15;;;3.80;;
6953;SDS011;3516;47.980;8.808;2023-02-11T15:22:00;80.60;;;36.38;;
6953;SDS011;3516;47.980;8.808;2023-02-11T15:24:28;141.82;;;57.38;;
6953;SDS011;3516;47.980;8.808;2023-02-11T15:26:56;61.78;;;30.92;;
6953;SDS011;3516;47.980;8.808;2023-02-11T15:29:23;31.48;;;19.50;;
6953;SDS011;3516;47.980;8.808;2023-02-11T15:32:01;21.02;;;14.20;;
6953;SDS011;3516;47.980;8.808;2023-02-11T15:34:29;21.77;;;14.32;;
6953;SDS011;3516;47.980;8.808;2023-02-11T15:36:56;19.92;;;14.45;;
6953;SDS011;3516;47.980;8.808;2023-02-11T15:39:29;22.70;;;13.40;;
6953;SDS011;3516;47.980;8.808;2023-02-11T15:44:39;30.48;;;18.05;;
6953;SDS011;3516;47.980;8.808;2023-02-11T15:47:08;28.25;;;16.80;;
6953;SDS011;3516;47.980;8.808;2023-02-11T15:49:35;25.88;;;16.38;;
6953;SDS011;3516;47.980;8.808;2023-02-11T15:52:02;26.90;;;17.25;;
6953;SDS011;3516;47.980;8.808;2023-02-11T15:54:31;25.38;;;16.67;;
6953;SDS011;3516;47.980;8.808;2023-02-11T15:56:58;28.98;;;17.33;;
6953;SDS011;3516;47.980;8.808;2023-02-11T15:59:27;36.47;;;20.15;;
6953;SDS011;3516;47.980;8.808;2023-02-11T16:01:55;74.65;;;34.30;;
6953;SDS011;3516;47.980;8.808;2023-02-11T16:04:24;70.82;;;32.67;;
6953;SDS011;3516;47.980;8.808;2023-02-11T16:06:52;69.82;;;31.02;;
6953;SDS011;3516;47.980;8.808;2023-02-11T16:09:24;60.88;;;28.67;;
6953;SDS011;3516;47.980;8.808;2023-02-11T16:11:56;44.95;;;22.50;;
6953;SDS011;3516;47.980;8.808;2023-02-11T16:14:26;35.75;;;18.38;;
6953;SDS011;3516;47.980;8.808;2023-02-11T16:16:54;46.10;;;24.30;;
6953;SDS011;3516;47.980;8.808;2023-02-11T16:19:23;43.13;;;24.13;;
6953;SDS011;3516;47.980;8.808;2023-02-11T16:21:50;40.85;;;24.25;;
6953;SDS011;3516;47.980;8.808;2023-02-11T16:24:18;34.40;;;21.30;;
6953;SDS011;3516;47.980;8.808;2023-02-11T16:26:46;33.75;;;21.77;;
6953;SDS011;3516;47.980;8.808;2023-02-11T16:29:16;38.55;;;21.75;;
6953;SDS011;3516;47.980;8.808;2023-02-11T16:31:46;38.17;;;21.58;;
6953;SDS011;3516;47.980;8.808;2023-02-11T16:34:14;30.42;;;19.15;;
6953;SDS011;3516;47.980;8.808;2023-02-11T16:36:42;31.65;;;20.02;;
6953;SDS011;3516;47.980;8.808;2023-02-11T16:39:09;34.65;;;19.88;;
6953;SDS011;3516;47.980;8.808;2023-02-11T16:41:36;32.70;;;18.60;;
6953;SDS011;3516;47.980;8.808;2023-02-11T16:44:03;31.00;;;19.10;;
6953;SDS011;3516;47.980;8.808;2023-02-11T16:46:31;31.63;;;18.65;;
6953;SDS011;3516;47.980;8.808;2023-02-11T16:49:01;37.72;;;20.23;;
6953;SDS011;3516;47.980;8.808;2023-02-11T16:51:31;36.30;;;21.17;;
6953;SDS011;3516;47.980;8.808;2023-02-11T16:53:58;33.33;;;19.52;;
6953;SDS011;3516;47.980;8.808;2023-02-11T16:56:25;32.13;;;19.92;;
6953;SDS011;3516;47.980;8.808;2023-02-11T16:58:53;31.52;;;19.38;;
6953;SDS011;3516;47.980;8.808;2023-02-11T17:01:20;33.00;;;19.25;;
6953;SDS011;3516;47.980;8.808;2023-02-11T17:03:48;37.65;;;19.90;;
6953;SDS011;3516;47.980;8.808;2023-02-11T17:06:15;41.13;;;23.08;;
6953;SDS011;3516;47.980;8.808;2023-02-11T17:08:42;36.30;;;21.15;;
6953;SDS011;3516;47.980;8.808;2023-02-11T17:11:10;36.53;;;20.42;;
6953;SDS011;3516;47.980;8.808;2023-02-11T17:13:40;36.58;;;20.27;;
6953;SDS011;3516;47.980;8.808;2023-02-11T17:16:10;40.47;;;21.77;;
6953;SDS011;3516;47.980;8.808;2023-02-11T17:18:41;36.72;;;19.38;;
6953;SDS011;3516;47.980;8.808;2023-02-11T17:21:10;35.33;;;18.42;;
6953;SDS011;3516;47.980;8.808;2023-02-11T17:23:37;27.92;;;16.63;;
6953;SDS011;3516;47.980;8.808;2023-02-11T17:26:04;27.65;;;15.55;;
6953;SDS011;3516;47.980;8.808;2023-02-11T17:28:31;19.17;;;13.40;;
6953;SDS011;3516;47.980;8.808;2023-02-11T17:30:58;24.38;;;13.52;;
6953;SDS011;3516;47.980;8.808;2023-02-11T17:33:25;17.52;;;11.95;;
6953;SDS011;3516;47.980;8.808;2023-02-11T17:35:52;22.90;;;14.18;;
6953;SDS011;3516;47.980;8.808;2023-02-11T17:38:21;27.40;;;16.52;;
6953;SDS011;3516;47.980;8.808;2023-02-11T17:40:55;26.25;;;13.95;;
6953;SDS011;3516;47.980;8.808;2023-02-11T17:43:22;17.90;;;12.55;;
6953;SDS011;3516;47.980;8.808;2023-02-11T17:45:49;21.52;;;13.63;;
6953;SDS011;3516;47.980;8.808;2023-02-11T17:48:16;22.27;;;14.77;;
6953;SDS011;3516;47.980;8.808;2023-02-11T17:50:43;22.45;;;13.68;;
6953;SDS011;3516;47.980;8.808;2023-02-11T17:53:10;25.80;;;15.48;;
6953;SDS011;3516;47.980;8.808;2023-02-11T17:55:39;44.90;;;21.30;;
6953;SDS011;3516;47.980;8.808;2023-02-11T17:58:06;29.60;;;15.68;;
6953;SDS011;3516;47.980;8.808;2023-02-11T18:00:33;16.08;;;9.02;;
6953;SDS011;3516;47.980;8.808;2023-02-11T18:03:00;16.25;;;9.07;;
6953;SDS011;3516;47.980;8.808;2023-02-11T18:05:27;26.83;;;12.93;;
6953;SDS011;3516;47.980;8.808;2023-02-11T18:07:54;27.48;;;13.40;;
6953;SDS011;3516;47.980;8.808;2023-02-11T18:10:21;22.13;;;12.65;;
6953;SDS011;3516;47.980;8.808;2023-02-11T18:12:50;19.83;;;10.20;;
6953;SDS011;3516;47.980;8.808;2023-02-11T18:15:17;20.13;;;10.57;;
6953;SDS011;3516;47.980;8.808;2023-02-11T18:17:44;8.20;;;6.03;;
6953;SDS011;3516;47.980;8.808;2023-02-11T18:20:11;21.20;;;14.00;;
6953;SDS011;3516;47.980;8.808;2023-02-11T18:22:38;22.42;;;13.52;;
6953;SDS011;3516;47.980;8.808;2023-02-11T18:25:09;22.63;;;13.73;;
6953;SDS011;3516;47.980;8.808;2023-02-11T18:27:37;21.02;;;11.38;;
6953;SDS011;3516;47.980;8.808;2023-02-11T18:30:06;13.70;;;10.15;;
6953;SDS011;3516;47.980;8.808;2023-02-11T18:32:33;8.57;;;6.50;;
6953;SDS011;3516;47.980;8.808;2023-02-11T18:35:00;7.45;;;5.82;;
6953;SDS011;3516;47.980;8.808;2023-02-11T18:37:27;8.82;;;6.43;;
6953;SDS011;3516;47.980;8.808;2023-02-11T18:39:54;11.20;;;6.95;;
6953;SDS011;3516;47.980;8.808;2023-02-11T18:42:21;16.33;;;9.68;;
6953;SDS011;3516;47.980;8.808;2023-02-11T18:44:48;17.52;;;9.30;;
6953;SDS011;3516;47.980;8.808;2023-02-11T18:47:17;12.70;;;6.90;;
6953;SDS011;3516;47.980;8.808;2023-02-11T18:49:44;10.88;;;6.47;;
6953;SDS011;3516;47.980;8.808;2023-02-11T18:52:11;12.20;;;6.40;;
6953;SDS011;3516;47.980;8.808;2023-02-11T18:54:38;10.60;;;6.20;;
6953;SDS011;3516;47.980;8.808;2023-02-11T18:57:05;7.35;;;5.65;;
6953;SDS011;3516;47.980;8.808;2023-02-11T18:59:33;7.75;;;5.22;;
6953;SDS011;3516;47.980;8.808;2023-02-11T19:02:00;9.30;;;6.60;;
6953;SDS011;3516;47.980;8.808;2023-02-11T19:04:28;11.73;;;8.20;;
6953;SDS011;3516;47.980;8.808;2023-02-11T19:06:55;10.98;;;7.90;;
6953;SDS011;3516;47.980;8.808;2023-02-11T19:09:27;11.70;;;7.10;;
6953;SDS011;3516;47.980;8.808;2023-02-11T19:11:54;10.50;;;7.20;;
6953;SDS011;3516;47.980;8.808;2023-02-11T19:14:22;10.98;;;7.15;;
6953;SDS011;3516;47.980;8.808;2023-02-11T19:16:50;10.38;;;7.57;;
6953;SDS011;3516;47.980;8.808;2023-02-11T19:19:17;11.65;;;6.75;;
6953;SDS011;3516;47.980;8.808;2023-02-11T19:21:47;10.48;;;5.72;;
6953;SDS011;3516;47.980;8.808;2023-02-11T19:24:15;10.48;;;6.05;;
6953;SDS011;3516;47.980;8.808;2023-02-11T19:26:44;9.82;;;5.70;;
6953;SDS011;3516;47.980;8.808;2023-02-11T19:29:11;7.65;;;5.88;;
6953;SDS011;3516;47.980;8.808;2023-02-11T19:31:38;7.85;;;6.00;;
6953;SDS011;3516;47.980;8.808;2023-02-11T19:34:05;9.25;;;6.90;;
6953;SDS011;3516;47.980;8.808;2023-02-11T19:36:33;11.02;;;7.07;;
6953;SDS011;3516;47.980;8.808;2023-02-11T19:39:01;9.55;;;6.63;;
6953;SDS011;3516;47.980;8.808;2023-02-11T19:41:29;10.43;;;7.32;;
6953;SDS011;3516;47.980;8.808;2023-02-11T19:43:57;7.60;;;5.80;;
6953;SDS011;3516;47.980;8.808;2023-02-11T19:46:25;8.48;;;5.40;;
6953;SDS011;3516;47.980;8.808;2023-02-11T19:48:53;10.25;;;6.47;;
6953;SDS011;3516;47.980;8.808;2023-02-11T19:51:20;17.80;;;9.15;;
6953;SDS011;3516;47.980;8.808;2023-02-11T19:53:47;32.90;;;15.52;;
6953;SDS011;3516;47.980;8.808;2023-02-11T19:56:16;19.75;;;10.02;;
6953;SDS011;3516;47.980;8.808;2023-02-11T19:58:43;26.38;;;12.90;;
6953;SDS011;3516;47.980;8.808;2023-02-11T20:01:11;23.02;;;11.75;;
6953;SDS011;3516;47.980;8.808;2023-02-11T20:03:39;22.58;;;11.68;;
6953;SDS011;3516;47.980;8.808;2023-02-11T20:06:07;21.23;;;10.43;;
6953;SDS011;3516;47.980;8.808;2023-02-11T20:08:34;17.95;;;10.73;;
6953;SDS011;3516;47.980;8.808;2023-02-11T20:11:05;21.58;;;10.82;;
6953;SDS011;3516;47.980;8.808;2023-02-11T20:13:34;22.08;;;12.35;;
6953;SDS011;3516;47.980;8.808;2023-02-11T20:16:02;38.30;;;17.75;;
6953;SDS011;3516;47.980;8.808;2023-02-11T20:18:30;46.35;;;20.38;;
6953;SDS011;3516;47.980;8.808;2023-02-11T20:20:57;37.92;;;18.13;;
6953;SDS011;3516;47.980;8.808;2023-02-11T20:23:25;35.35;;;16.90;;
6953;SDS011;3516;47.980;8.808;2023-02-11T20:25:52;23.95;;;13.23;;
6953;SDS011;3516;47.980;8.808;2023-02-11T20:28:19;16.45;;;9.80;;
6953;SDS011;3516;47.980;8.808;2023-02-11T20:30:54;16.13;;;9.05;;
6953;SDS011;3516;47.980;8.808;2023-02-11T20:33:22;9.15;;;6.20;;
6953;SDS011;3516;47.980;8.808;2023-02-11T20:35:55;8.30;;;6.38;;
6953;SDS011;3516;47.980;8.808;2023-02-11T20:38:23;9.57;;;6.28;;
6953;SDS011;3516;47.980;8.808;2023-02-11T20:40:50;7.00;;;5.78;;
6953;SDS011;3516;47.980;8.808;2023-02-11T20:43:17;7.50;;;5.68;;
6953;SDS011;3516;47.980;8.808;2023-02-11T20:45:46;6.70;;;6.00;;
6953;SDS011;3516;47.980;8.808;2023-02-11T20:48:17;8.95;;;6.25;;
6953;SDS011;3516;47.980;8.808;2023-02-11T20:50:44;7.75;;;5.88;;
6953;SDS011;3516;47.980;8.808;2023-02-11T20:53:11;10.50;;;6.65;;
6953;SDS011;3516;47.980;8.808;2023-02-11T20:55:39;15.93;;;9.45;;
6953;SDS011;3516;47.980;8.808;2023-02-11T20:58:06;16.15;;;9.70;;
6953;SDS011;3516;47.980;8.808;2023-02-11T21:00:34;17.60;;;8.70;;
6953;SDS011;3516;47.980;8.808;2023-02-11T21:03:02;8.40;;;6.35;;
6953;SDS011;3516;47.980;8.808;2023-02-11T21:05:30;7.88;;;6.60;;
6953;SDS011;3516;47.980;8.808;2023-02-11T21:07:58;8.52;;;5.95;;
6953;SDS011;3516;47.980;8.808;2023-02-11T21:10:25;9.00;;;6.22;;
6953;SDS011;3516;47.980;8.808;2023-02-11T21:12:52;9.23;;;5.82;;
6953;SDS011;3516;47.980;8.808;2023-02-11T21:15:19;8.07;;;6.18;;
6953;SDS011;3516;47.980;8.808;2023-02-11T21:17:48;8.68;;;6.40;;
6953;SDS011;3516;47.980;8.808;2023-02-11T21:20:15;6.75;;;5.90;;
6953;SDS011;3516;47.980;8.808;2023-02-11T21:22:43;14.27;;;8.75;;
6953;SDS011;3516;47.980;8.808;2023-02-11T21:25:10;17.00;;;10.77;;
6953;SDS011;3516;47.980;8.808;2023-02-11T21:27:37;14.32;;;9.10;;
6953;SDS011;3516;47.980;8.808;2023-02-11T21:30:05;12.15;;;8.13;;
6953;SDS011;3516;47.980;8.808;2023-02-11T21:32:33;11.18;;;7.65;;
6953;SDS011;3516;47.980;8.808;2023-02-11T21:35:07;13.18;;;8.73;;
6953;SDS011;3516;47.980;8.808;2023-02-11T21:37:39;20.90;;;14.35;;
6953;SDS011;3516;47.980;8.808;2023-02-11T21:40:14;24.52;;;17.38;;
6953;SDS011;3516;47.980;8.808;2023-02-11T21:42:43;26.80;;;18.35;;
6953;SDS011;3516;47.980;8.808;2023-02-11T21:45:10;19.35;;;13.43;;
6953;SDS011;3516;47.980;8.808;2023-02-11T21:47:39;16.80;;;11.35;;
6953;SDS011;3516;47.980;8.808;2023-02-11T21:50:06;21.00;;;12.27;;
6953;SDS011;3516;47.980;8.808;2023-02-11T21:52:33;22.08;;;11.48;;
6953;SDS011;3516;47.980;8.808;2023-02-11T21:55:00;38.75;;;15.15;;
6953;SDS011;3516;47.980;8.808;2023-02-11T21:57:29;32.00;;;13.95;;
6953;SDS011;3516;47.980;8.808;2023-02-11T21:59:56;26.70;;;12.18;;
6953;SDS011;3516;47.980;8.808;2023-02-11T22:02:23;20.15;;;10.05;;
6953;SDS011;3516;47.980;8.808;2023-02-11T22:04:50;15.27;;;8.93;;
6953;SDS011;3516;47.980;8.808;2023-02-11T22:07:17;17.92;;;9.50;;
6953;SDS011;3516;47.980;8.808;2023-02-11T22:09:44;16.33;;;9.15;;
6953;SDS011;3516;47.980;8.808;2023-02-11T22:12:12;17.60;;;10.32;;
6953;SDS011;3516;47.980;8.808;2023-02-11T22:14:41;20.88;;;10.70;;
6953;SDS011;3516;47.980;8.808;2023-02-11T22:17:08;16.33;;;9.73;;
6953;SDS011;3516;47.980;8.808;2023-02-11T22:19:35;25.58;;;14.25;;
6953;SDS011;3516;47.980;8.808;2023-02-11T22:22:02;43.80;;;18.70;;
6953;SDS011;3516;47.980;8.808;2023-02-11T22:24:29;35.78;;;18.33;;
6953;SDS011;3516;47.980;8.808;2023-02-11T22:26:56;30.23;;;16.98;;
6953;SDS011;3516;47.980;8.808;2023-02-11T22:29:23;22.20;;;12.77;;
6953;SDS011;3516;47.980;8.808;2023-02-11T22:31:51;28.10;;;13.90;;
6953;SDS011;3516;47.980;8.808;2023-02-11T22:34:18;20.10;;;13.00;;
6953;SDS011;3516;47.980;8.808;2023-02-11T22:36:45;20.98;;;12.13;;
6953;SDS011;3516;47.980;8.808;2023-02-11T22:39:13;24.38;;;12.65;;
6953;SDS011;3516;47.980;8.808;2023-02-11T22:41:41;20.73;;;12.52;;
6953;SDS011;3516;47.980;8.808;2023-02-11T22:44:08;22.95;;;12.95;;
6953;SDS011;3516;47.980;8.808;2023-02-11T22:46:36;23.92;;;13.32;;